createdAt,value
2019-03-11T00:01:33.931Z,3.83
2019-03-11T00:06:37.355Z,6.73
2019-03-11T00:11:40.811Z,4.90
2019-03-11T00:16:44.237Z,3.57
2019-03-11T00:21:47.723Z,4.47
2019-03-11T00:26:51.222Z,3.70
2019-03-11T00:31:54.709Z,2.57
2019-03-11T00:36:58.133Z,3.37
2019-03-11T00:42:01.675Z,4.07
2019-03-11T00:47:05.155Z,3.30
2019-03-11T00:52:08.594Z,3.70
2019-03-11T00:57:12.007Z,3.90
2019-03-11T01:02:15.416Z,4.57
2019-03-11T01:07:18.982Z,3.97
2019-03-11T01:12:22.413Z,4.73
2019-03-11T01:17:25.832Z,4.53
2019-03-11T01:22:29.255Z,4.27
2019-03-11T01:27:32.691Z,4.77
2019-03-11T01:32:36.093Z,4.37
2019-03-11T01:37:39.532Z,3.23
2019-03-11T01:42:43.050Z,2.57
2019-03-11T01:47:47.348Z,2.40
2019-03-11T01:52:50.763Z,2.27
2019-03-11T01:57:54.199Z,2.53
2019-03-11T02:02:57.653Z,2.43
2019-03-11T02:08:01.083Z,1.97
2019-03-11T02:13:04.605Z,2.17
2019-03-11T02:18:08.018Z,3.03
2019-03-11T02:23:11.507Z,2.33
2019-03-11T02:28:15.047Z,3.57
2019-03-11T02:33:18.565Z,4.30
2019-03-11T02:38:22.007Z,4.17
2019-03-11T02:43:25.445Z,5.13
2019-03-11T02:48:28.890Z,4.93
2019-03-11T02:53:32.334Z,5.70
2019-03-11T02:58:35.840Z,4.53
2019-03-11T03:03:41.046Z,4.40
2019-03-11T03:08:44.484Z,5.07
2019-03-11T03:13:47.905Z,4.30
2019-03-11T03:18:51.367Z,3.77
2019-03-11T03:23:54.837Z,4.20
2019-03-11T03:28:58.234Z,4.07
2019-03-11T03:34:01.699Z,5.37
2019-03-11T03:39:07.654Z,5.23
2019-03-11T03:44:11.266Z,4.73
2019-03-11T03:49:14.688Z,4.57
2019-03-11T03:54:18.132Z,3.30
2019-03-11T03:59:21.612Z,4.23
2019-03-11T04:04:25.013Z,3.93
2019-03-11T04:09:28.472Z,4.53
2019-03-11T04:14:31.956Z,4.47
2019-03-11T04:19:35.441Z,4.27
2019-03-11T04:24:39.106Z,3.80
2019-03-11T04:29:42.534Z,3.97
2019-03-11T04:34:45.968Z,5.00
2019-03-11T04:39:49.454Z,4.33
2019-03-11T04:44:52.931Z,4.87
2019-03-11T04:49:56.360Z,4.23
2019-03-11T04:55:00.561Z,5.10
2019-03-11T05:00:05.674Z,3.70
2019-03-11T05:05:09.165Z,4.30
2019-03-11T05:10:16.147Z,4.30
2019-03-11T05:15:18.842Z,3.87
2019-03-11T05:20:22.360Z,5.93
2019-03-11T05:25:25.798Z,3.93
2019-03-11T05:30:29.219Z,4.43
2019-03-11T05:35:32.672Z,4.40
2019-03-11T05:40:36.277Z,4.73
2019-03-11T05:45:39.734Z,4.20
2019-03-11T05:50:43.180Z,5.27
2019-03-11T05:55:46.641Z,6.20
2019-03-11T06:00:50.084Z,5.70
2019-03-11T06:05:53.806Z,5.43
2019-03-11T06:10:57.235Z,3.83
2019-03-11T06:16:00.688Z,4.80
2019-03-11T06:21:17.721Z,3.67
2019-03-11T06:26:21.154Z,4.83
2019-03-11T06:31:24.610Z,4.97
2019-03-11T06:36:28.071Z,4.27
2019-03-11T06:41:31.523Z,4.13
2019-03-11T06:46:35.036Z,4.57
2019-03-11T06:51:38.566Z,4.63
2019-03-11T06:56:42.030Z,4.20
2019-03-11T07:01:45.505Z,10.30
2019-03-11T07:06:48.949Z,5.30
2019-03-11T07:11:52.407Z,5.10
2019-03-11T07:16:55.870Z,4.70
2019-03-11T07:21:59.344Z,8.60
2019-03-11T07:27:02.780Z,7.30
2019-03-11T07:32:06.202Z,8.37
2019-03-11T07:37:09.877Z,7.93
2019-03-11T07:42:13.362Z,8.53
2019-03-11T07:47:16.797Z,5.93
2019-03-11T07:52:20.239Z,8.83
2019-03-11T07:57:23.671Z,8.03
2019-03-11T08:02:27.757Z,8.03
2019-03-11T08:07:31.220Z,9.23
2019-03-11T08:12:34.675Z,7.57
2019-03-11T08:17:38.110Z,7.00
2019-03-11T08:22:41.541Z,5.87
2019-03-11T08:27:45.047Z,5.60
2019-03-11T08:32:48.979Z,4.77
2019-03-11T08:37:52.445Z,5.10
2019-03-11T08:42:55.891Z,5.33
2019-03-11T08:47:59.344Z,5.60
2019-03-11T08:53:02.790Z,4.13
2019-03-11T08:58:06.313Z,4.67
2019-03-11T09:03:09.758Z,4.53
2019-03-11T09:08:13.203Z,3.97
2019-03-11T09:13:16.640Z,5.20
2019-03-11T09:18:20.092Z,6.07
2019-03-11T09:23:23.531Z,5.47
2019-03-11T09:28:27.082Z,5.00
2019-03-11T09:33:30.596Z,6.67
2019-03-11T09:38:34.032Z,5.77
2019-03-11T09:43:37.478Z,5.13
2019-03-11T09:48:40.934Z,5.17
2019-03-11T09:53:44.373Z,6.40
2019-03-11T09:58:47.832Z,5.40
2019-03-11T10:03:51.324Z,5.20
2019-03-11T10:08:54.784Z,4.70
2019-03-11T10:13:58.218Z,3.77
2019-03-11T10:19:01.669Z,4.13
2019-03-11T10:24:05.180Z,3.73
2019-03-11T10:29:08.593Z,4.10
2019-03-11T10:34:12.042Z,4.60
2019-03-11T10:39:15.494Z,4.07
2019-03-11T10:44:18.948Z,5.30
2019-03-11T10:49:22.413Z,4.67
2019-03-11T10:54:25.854Z,4.20
2019-03-11T10:59:29.349Z,5.80
2019-03-11T11:04:32.871Z,5.37
2019-03-11T11:09:36.369Z,4.43
2019-03-11T11:14:40.060Z,3.57
2019-03-11T11:19:43.506Z,3.90
2019-03-11T11:24:46.974Z,3.43
2019-03-11T11:29:50.400Z,4.03
2019-03-11T11:34:53.849Z,2.97
2019-03-11T11:39:58.035Z,3.43
2019-03-11T11:45:01.474Z,3.60
2019-03-11T11:50:08.027Z,2.77
2019-03-11T11:55:12.384Z,2.67
2019-03-11T12:00:22.127Z,2.40
2019-03-11T12:05:25.845Z,2.77
2019-03-11T12:10:33.334Z,4.10
2019-03-11T12:15:36.834Z,2.57
2019-03-11T12:20:40.345Z,4.27
2019-03-11T12:25:43.786Z,3.47
2019-03-11T12:30:47.237Z,2.47
2019-03-11T12:35:50.691Z,2.77
2019-03-11T12:40:54.150Z,2.63
2019-03-11T12:45:57.590Z,1.80
2019-03-11T12:51:01.022Z,1.93
2019-03-11T12:56:04.462Z,2.80
2019-03-11T13:01:07.999Z,1.70
2019-03-11T13:06:11.503Z,1.60
2019-03-11T13:11:14.998Z,1.50
2019-03-11T13:16:18.432Z,2.40
2019-03-11T13:21:24.706Z,2.30
2019-03-11T13:26:28.125Z,2.60
2019-03-11T13:31:31.593Z,2.43
2019-03-11T13:36:35.047Z,1.67
2019-03-11T13:41:38.486Z,1.37
2019-03-11T13:46:41.932Z,1.47
2019-03-11T13:51:45.440Z,1.30
2019-03-11T13:56:48.922Z,1.70
2019-03-11T14:01:52.453Z,2.10
2019-03-11T14:06:55.910Z,2.43
2019-03-11T14:11:59.437Z,1.77
2019-03-11T14:17:02.890Z,2.13
2019-03-11T14:22:06.387Z,1.57
2019-03-11T14:27:09.911Z,2.07
2019-03-11T14:32:14.502Z,1.10
2019-03-11T14:37:18.051Z,1.60
2019-03-11T14:42:21.513Z,2.33
2019-03-11T14:47:24.951Z,1.93
2019-03-11T14:52:28.369Z,1.67
2019-03-11T14:57:31.808Z,1.60
2019-03-11T15:02:35.311Z,1.40
2019-03-11T15:07:38.806Z,1.87
2019-03-11T15:12:42.538Z,2.13
2019-03-11T15:17:45.978Z,3.27
2019-03-11T15:22:49.546Z,2.10
2019-03-11T15:27:52.976Z,2.40
2019-03-11T15:32:56.405Z,1.90
2019-03-11T15:37:59.858Z,2.20
2019-03-11T15:43:03.279Z,1.83
2019-03-11T15:48:06.725Z,1.40
2019-03-11T15:53:10.172Z,2.10
2019-03-11T15:58:13.617Z,3.10
2019-03-11T16:03:17.112Z,1.87
2019-03-11T16:08:20.564Z,2.23
2019-03-11T16:13:24.032Z,4.40
2019-03-11T16:18:27.477Z,2.67
2019-03-11T16:23:31.005Z,2.40
2019-03-11T16:28:34.440Z,2.13
2019-03-11T16:33:38.005Z,1.80
2019-03-11T16:38:41.422Z,1.87
2019-03-11T16:43:44.838Z,1.40
2019-03-11T16:48:48.279Z,1.00
2019-03-11T16:53:51.718Z,2.30
2019-03-11T16:58:55.189Z,1.87
2019-03-11T17:03:58.649Z,1.20
2019-03-11T17:09:02.171Z,1.67
2019-03-11T17:14:05.738Z,1.23
2019-03-11T17:19:09.202Z,0.63
2019-03-11T17:24:12.661Z,2.27
2019-03-11T17:29:16.104Z,1.30
2019-03-11T17:34:19.602Z,1.30
2019-03-11T17:39:23.096Z,1.80
2019-03-11T17:44:26.644Z,1.07
2019-03-11T17:49:30.114Z,1.30
2019-03-11T17:54:33.567Z,2.27
2019-03-11T17:59:36.992Z,1.50
2019-03-11T18:04:40.519Z,1.63
2019-03-11T18:09:46.152Z,1.83
2019-03-11T18:14:49.607Z,2.07
2019-03-11T18:19:53.077Z,2.13
2019-03-11T18:24:57.081Z,1.77
2019-03-11T18:30:00.487Z,2.67
2019-03-11T18:35:04.673Z,2.53
2019-03-11T18:40:13.555Z,2.20
2019-03-11T18:45:17.615Z,7.90
2019-03-11T18:50:22.722Z,3.17
2019-03-11T18:55:26.100Z,2.87
2019-03-11T19:00:29.579Z,1.80
2019-03-11T19:05:33.055Z,3.23
2019-03-11T19:10:36.475Z,3.07
2019-03-11T19:15:39.919Z,1.97
2019-03-11T19:20:43.440Z,2.43
2019-03-11T19:25:46.864Z,2.00
2019-03-11T19:30:50.434Z,3.07
2019-03-11T19:35:55.381Z,2.57
2019-03-11T19:40:58.834Z,5.33
2019-03-11T19:46:02.272Z,2.70
2019-03-11T19:51:05.812Z,3.57
2019-03-11T19:56:09.735Z,2.50
2019-03-11T20:01:13.273Z,3.23
2019-03-11T20:06:16.727Z,3.23
2019-03-11T20:11:20.298Z,2.23
2019-03-11T20:16:23.756Z,2.70
2019-03-11T20:21:27.791Z,2.07
2019-03-11T20:26:31.416Z,8.37
2019-03-11T20:31:34.876Z,3.03
2019-03-11T20:36:38.312Z,3.30
2019-03-11T20:41:43.285Z,2.90
2019-03-11T20:46:46.814Z,3.17
2019-03-11T20:51:50.300Z,3.47
2019-03-11T20:56:54.719Z,2.90
2019-03-11T21:01:58.174Z,2.87
2019-03-11T21:07:03.198Z,2.60
2019-03-11T21:12:06.770Z,2.57
2019-03-11T21:17:25.257Z,2.90
2019-03-11T21:22:19.764Z,2.87
2019-03-11T21:27:23.228Z,4.37
2019-03-11T21:32:30.293Z,3.23
2019-03-11T21:37:36.377Z,3.47
2019-03-11T21:42:40.785Z,3.20
2019-03-11T21:47:44.247Z,2.90
2019-03-11T21:52:47.829Z,3.47
2019-03-11T21:57:56.036Z,4.40
2019-03-11T22:02:59.456Z,3.10
2019-03-11T22:08:02.885Z,3.47
2019-03-11T22:13:06.356Z,2.73
2019-03-11T22:18:09.799Z,2.53
2019-03-11T22:23:13.317Z,2.80
2019-03-11T22:28:16.822Z,2.40
2019-03-11T22:33:20.287Z,2.47
2019-03-11T22:38:24.544Z,2.93
2019-03-11T22:43:27.997Z,2.47
2019-03-11T22:48:31.426Z,2.57
2019-03-11T22:53:34.860Z,2.80
2019-03-11T22:58:38.283Z,2.53
2019-03-11T23:03:50.558Z,2.17
2019-03-11T23:08:46.906Z,2.47
2019-03-11T23:13:50.382Z,3.10
2019-03-11T23:18:53.817Z,2.13
2019-03-11T23:23:57.261Z,2.73
2019-03-11T23:29:00.690Z,2.90
2019-03-11T23:34:04.140Z,2.93
2019-03-11T23:39:08.139Z,3.87
2019-03-11T23:44:11.574Z,2.97
2019-03-11T23:49:15.007Z,3.33
2019-03-11T23:54:18.462Z,3.13
2019-03-11T23:59:21.903Z,3.73
